sensor_id;sensor_type;location;lat;lon;timestamp;pressure;altitude;pressure_sealevel;temperature;humidity
8697;BME280;4385;48.848;8.924;2023-03-15T00:01:44;96976.53;;;18.65;100.00
8697;BME280;4385;48.848;8.924;2023-03-15T00:04:11;96986.78;;;18.64;100.00
8697;BME280;4385;48.848;8.924;2023-03-15T00:06:36;96993.56;;;18.65;100.00
8697;BME280;4385;48.848;8.924;2023-03-15T00:09:02;96994.50;;;18.62;100.00
8697;BME280;4385;48.848;8.924;2023-03-15T00:11:29;97006.41;;;18.62;100.00
8697;BME280;4385;48.848;8.924;2023-03-15T00:13:56;97009.84;;;18.61;100.00
8697;BME280;4385;48.848;8.924;2023-03-15T00:16:22;97018.41;;;18.60;100.00
8697;BME280;4385;48.848;8.924;2023-03-15T00:18:52;97017.56;;;18.59;100.00
8697;BME280;4385;48.848;8.924;2023-03-15T00:21:18;97017.59;;;18.57;100.00
8697;BME280;4385;48.848;8.924;2023-03-15T00:23:43;97030.41;;;18.56;100.00
8697;BME280;4385;48.848;8.924;2023-03-15T00:26:09;97032.16;;;18.54;100.00
8697;BME280;4385;48.848;8.924;2023-03-15T00:28:34;97029.59;;;18.54;100.00
8697;BME280;4385;48.848;8.924;2023-03-15T00:31:08;97032.22;;;18.52;100.00
8697;BME280;4385;48.848;8.924;2023-03-15T00:33:37;97038.19;;;18.51;100.00
8697;BME280;4385;48.848;8.924;2023-03-15T00:36:06;97045.81;;;18.53;100.00
8697;BME280;4385;48.848;8.924;2023-03-15T00:38:33;97042.41;;;18.52;100.00
8697;BME280;4385;48.848;8.924;2023-03-15T00:41:10;97049.22;;;18.53;100.00
8697;BME280;4385;48.848;8.924;2023-03-15T00:43:36;97058.53;;;18.54;100.00
8697;BME280;4385;48.848;8.924;2023-03-15T00:46:03;97054.25;;;18.55;100.00
8697;BME280;4385;48.848;8.924;2023-03-15T01:01:55;97072.00;;;18.60;100.00
8697;BME280;4385;48.848;8.924;2023-03-15T01:04:20;97082.19;;;18.60;100.00
8697;BME280;4385;48.848;8.924;2023-03-15T01:06:46;97083.06;;;18.59;100.00
8697;BME280;4385;48.848;8.924;2023-03-15T01:09:11;97080.56;;;18.57;100.00
8697;BME280;4385;48.848;8.924;2023-03-15T01:11:36;97078.03;;;18.55;100.00
8697;BME280;4385;48.848;8.924;2023-03-15T01:14:01;97086.59;;;18.54;100.00
8697;BME280;4385;48.848;8.924;2023-03-15T01:16:32;97094.31;;;18.51;100.00
8697;BME280;4385;48.848;8.924;2023-03-15T01:18:58;97093.47;;;18.51;100.00
8697;BME280;4385;48.848;8.924;2023-03-15T01:21:24;97095.25;;;18.49;100.00
8697;BME280;4385;48.848;8.924;2023-03-15T01:23:50;97092.81;;;18.46;100.00
8697;BME280;4385;48.848;8.924;2023-03-15T01:26:16;97102.16;;;18.45;100.00
8697;BME280;4385;48.848;8.924;2023-03-15T01:28:42;97100.53;;;18.42;100.00
8697;BME280;4385;48.848;8.924;2023-03-15T01:31:23;97102.28;;;18.40;100.00
8697;BME280;4385;48.848;8.924;2023-03-15T01:33:48;97108.25;;;18.41;100.00
8697;BME280;4385;48.848;8.924;2023-03-15T01:36:14;97101.44;;;18.40;100.00
8697;BME280;4385;48.848;8.924;2023-03-15T01:38:39;97104.81;;;18.42;100.00
8697;BME280;4385;48.848;8.924;2023-03-15T01:41:05;97113.25;;;18.44;100.00
8697;BME280;4385;48.848;8.924;2023-03-15T01:43:32;97112.31;;;18.47;100.00
8697;BME280;4385;48.848;8.924;2023-03-15T01:48:43;97118.13;;;18.52;100.00
8697;BME280;4385;48.848;8.924;2023-03-15T01:54:09;97128.13;;;18.60;100.00
8697;BME280;4385;48.848;8.924;2023-03-15T01:56:40;97126.31;;;18.63;100.00
8697;BME280;4385;48.848;8.924;2023-03-15T01:59:13;97125.44;;;18.64;100.00
8697;BME280;4385;48.848;8.924;2023-03-15T02:01:41;97128.75;;;18.66;100.00
8697;BME280;4385;48.848;8.924;2023-03-15T02:04:11;97133.88;;;18.66;100.00
8697;BME280;4385;48.848;8.924;2023-03-15T02:06:39;97131.38;;;18.65;100.00
8697;BME280;4385;48.848;8.924;2023-03-15T02:09:12;97133.16;;;18.63;100.00
8697;BME280;4385;48.848;8.924;2023-03-15T02:11:39;97134.91;;;18.61;100.00
8697;BME280;4385;48.848;8.924;2023-03-15T02:14:05;97141.75;;;18.59;100.00
8697;BME280;4385;48.848;8.924;2023-03-15T02:16:32;97140.97;;;18.56;100.00
8697;BME280;4385;48.848;8.924;2023-03-15T02:18:57;97138.50;;;18.53;100.00
8697;BME280;4385;48.848;8.924;2023-03-15T02:21:42;97140.25;;;18.51;100.00
8697;BME280;4385;48.848;8.924;2023-03-15T02:26:52;97145.53;;;18.45;100.00
8697;BME280;4385;48.848;8.924;2023-03-15T02:29:18;97155.72;;;18.45;100.00
8697;BME280;4385;48.848;8.924;2023-03-15T02:31:44;97153.19;;;18.45;100.00
8697;BME280;4385;48.848;8.924;2023-03-15T02:34:09;97150.63;;;18.45;100.00
8697;BME280;4385;48.848;8.924;2023-03-15T02:36:35;97154.75;;;18.49;100.00
8697;BME280;4385;48.848;8.924;2023-03-15T02:39:14;97159.75;;;18.54;100.00
8697;BME280;4385;48.848;8.924;2023-03-15T02:41:52;97163.00;;;18.59;100.00
8697;BME280;4385;48.848;8.924;2023-03-15T02:44:18;97162.06;;;18.62;100.00
8697;BME280;4385;48.848;8.924;2023-03-15T02:46:47;97172.16;;;18.66;100.00
8697;BME280;4385;48.848;8.924;2023-03-15T02:49:16;97177.13;;;18.71;100.00
8697;BME280;4385;48.848;8.924;2023-03-15T02:51:42;97179.63;;;18.73;100.00
8697;BME280;4385;48.848;8.924;2023-03-15T02:54:07;97185.50;;;18.76;100.00
8697;BME280;4385;48.848;8.924;2023-03-15T02:56:33;97190.59;;;18.76;100.00
8697;BME280;4385;48.848;8.924;2023-03-15T02:58:58;97199.94;;;18.77;100.00
8697;BME280;4385;48.848;8.924;2023-03-15T03:01:24;97207.59;;;18.77;100.00
8697;BME280;4385;48.848;8.924;2023-03-15T03:03:49;97200.81;;;18.76;100.00
8697;BME280;4385;48.848;8.924;2023-03-15T03:06:15;97211.91;;;18.75;100.00
8697;BME280;4385;48.848;8.924;2023-03-15T03:08:42;97212.00;;;18.72;100.00
8697;BME280;4385;48.848;8.924;2023-03-15T03:11:12;97212.03;;;18.71;100.00
8697;BME280;4385;48.848;8.924;2023-03-15T03:13:37;97224.00;;;18.68;100.00
8697;BME280;4385;48.848;8.924;2023-03-15T03:16:02;97220.69;;;18.65;100.00
8697;BME280;4385;48.848;8.924;2023-03-15T03:18:28;97229.34;;;18.59;100.00
8697;BME280;4385;48.848;8.924;2023-03-15T03:20:55;97234.53;;;18.56;100.00
8697;BME280;4385;48.848;8.924;2023-03-15T03:23:22;97241.44;;;18.52;100.00
8697;BME280;4385;48.848;8.924;2023-03-15T03:25:50;97249.16;;;18.49;100.00
8697;BME280;4385;48.848;8.924;2023-03-15T03:28:15;97251.78;;;18.46;100.00
8697;BME280;4385;48.848;8.924;2023-03-15T03:30:41;97253.59;;;18.42;100.00
8697;BME280;4385;48.848;8.924;2023-03-15T03:33:06;97253.59;;;18.42;100.00
8697;BME280;4385;48.848;8.924;2023-03-15T03:35:31;97258.66;;;18.44;100.00
8697;BME280;4385;48.848;8.924;2023-03-15T03:37:56;97262.00;;;18.46;100.00
8697;BME280;4385;48.848;8.924;2023-03-15T03:40:22;97270.47;;;18.48;100.00
8697;BME280;4385;48.848;8.924;2023-03-15T03:42:47;97274.59;;;18.52;100.00
8697;BME280;4385;48.848;8.924;2023-03-15T03:45:12;97278.81;;;18.55;100.00
8697;BME280;4385;48.848;8.924;2023-03-15T03:47:38;97273.63;;;18.58;100.00
8697;BME280;4385;48.848;8.924;2023-03-15T03:50:03;97277.72;;;18.64;100.00
8697;BME280;4385;48.848;8.924;2023-03-15T03:52:28;97282.75;;;18.67;100.00
8697;BME280;4385;48.848;8.924;2023-03-15T03:54:54;97288.66;;;18.69;100.00
8697;BME280;4385;48.848;8.924;2023-03-15T03:57:20;97288.56;;;18.72;100.00
8697;BME280;4385;48.848;8.924;2023-03-15T03:59:45;97285.13;;;18.73;100.00
8697;BME280;4385;48.848;8.924;2023-03-15T04:02:10;97293.63;;;18.74;100.00
8697;BME280;4385;48.848;8.924;2023-03-15T04:04:36;97304.69;;;18.73;100.00
8697;BME280;4385;48.848;8.924;2023-03-15T04:07:05;97299.63;;;18.71;100.00
8697;BME280;4385;48.848;8.924;2023-03-15T04:09:30;97309.06;;;18.69;100.00
8697;BME280;4385;48.848;8.924;2023-03-15T04:11:55;97307.41;;;18.66;100.00
8697;BME280;4385;48.848;8.924;2023-03-15T04:14:21;97305.81;;;18.62;100.00
8697;BME280;4385;48.848;8.924;2023-03-15T04:16:46;97310.97;;;18.61;100.00
8697;BME280;4385;48.848;8.924;2023-03-15T04:19:11;97308.50;;;18.57;100.00
8697;BME280;4385;48.848;8.924;2023-03-15T04:21:36;97317.09;;;18.55;100.00
8697;BME280;4385;48.848;8.924;2023-03-15T04:24:02;97314.66;;;18.50;100.00
8697;BME280;4385;48.848;8.924;2023-03-15T04:26:28;97324.03;;;18.48;100.00
8697;BME280;4385;48.848;8.924;2023-03-15T04:28:55;97318.13;;;18.46;100.00
8697;BME280;4385;48.848;8.924;2023-03-15T04:31:21;97323.28;;;18.44;100.00
8697;BME280;4385;48.848;8.924;2023-03-15T04:33:54;97327.56;;;18.44;100.00
8697;BME280;4385;48.848;8.924;2023-03-15T04:36:23;97324.13;;;18.45;100.00
8697;BME280;4385;48.848;8.924;2023-03-15T04:38:48;97327.47;;;18.47;100.00
8697;BME280;4385;48.848;8.924;2023-03-15T04:41:15;97325.66;;;18.51;100.00
8697;BME280;4385;48.848;8.924;2023-03-15T04:43:42;97330.69;;;18.54;100.00
8697;BME280;4385;48.848;8.924;2023-03-15T04:46:07;97336.56;;;18.57;100.00
8697;BME280;4385;48.848;8.924;2023-03-15T04:48:33;97330.50;;;18.62;100.00
8697;BME280;4385;48.848;8.924;2023-03-15T04:50:58;97327.84;;;18.66;100.00
8697;BME280;4385;48.848;8.924;2023-03-15T04:53:24;97332.81;;;18.71;100.00
8697;BME280;4385;48.848;8.924;2023-03-15T04:55:50;97335.25;;;18.76;100.00
8697;BME280;4385;48.848;8.924;2023-03-15T04:58:16;97333.47;;;18.79;100.00
8697;BME280;4385;48.848;8.924;2023-03-15T05:00:42;97338.56;;;18.79;100.00
8697;BME280;4385;48.848;8.924;2023-03-15T05:03:07;97333.47;;;18.79;100.00
8697;BME280;4385;48.848;8.924;2023-03-15T05:05:32;97331.81;;;18.78;100.00
8697;BME280;4385;48.848;8.924;2023-03-15T05:07:58;97328.44;;;18.76;100.00
8697;BME280;4385;48.848;8.924;2023-03-15T05:10:23;97335.28;;;18.74;100.00
8697;BME280;4385;48.848;8.924;2023-03-15T05:12:49;97326.84;;;18.72;100.00
8697;BME280;4385;48.848;8.924;2023-03-15T05:15:15;97328.59;;;18.70;100.00
8697;BME280;4385;48.848;8.924;2023-03-15T05:17:40;97314.22;;;18.67;100.00
8697;BME280;4385;48.848;8.924;2023-03-15T05:20:06;97323.66;;;18.64;100.00
8697;BME280;4385;48.848;8.924;2023-03-15T05:22:36;97317.78;;;18.60;100.00
8697;BME280;4385;48.848;8.924;2023-03-15T05:25:02;97328.94;;;18.56;100.00
8697;BME280;4385;48.848;8.924;2023-03-15T05:27:27;97328.16;;;18.54;100.00
8697;BME280;4385;48.848;8.924;2023-03-15T05:29:53;97327.41;;;18.50;100.00
8697;BME280;4385;48.848;8.924;2023-03-15T05:32:18;97335.91;;;18.49;100.00
8697;BME280;4385;48.848;8.924;2023-03-15T05:34:43;97339.34;;;18.48;100.00
8697;BME280;4385;48.848;8.924;2023-03-15T05:37:09;97341.00;;;18.49;100.00
8697;BME280;4385;48.848;8.924;2023-03-15T05:39:36;97342.78;;;18.47;100.00
8697;BME280;4385;48.848;8.924;2023-03-15T05:42:01;97342.78;;;18.47;100.00
8697;BME280;4385;48.848;8.924;2023-03-15T05:44:27;97349.56;;;18.48;100.00
8697;BME280;4385;48.848;8.924;2023-03-15T05:46:52;97347.88;;;18.47;100.00
8697;BME280;4385;48.848;8.924;2023-03-15T05:49:17;97351.28;;;18.46;100.00
8697;BME280;4385;48.848;8.924;2023-03-15T05:51:43;97345.34;;;18.47;100.00
8697;BME280;4385;48.848;8.924;2023-03-15T05:54:08;97347.88;;;18.47;100.00
8697;BME280;4385;48.848;8.924;2023-03-15T05:56:33;97344.53;;;18.45;100.00
8697;BME280;4385;48.848;8.924;2023-03-15T05:58:58;97351.28;;;18.46;100.00
8697;BME280;4385;48.848;8.924;2023-03-15T06:01:27;97353.09;;;18.42;100.00
8697;BME280;4385;48.848;8.924;2023-03-15T06:03:52;97360.75;;;18.42;100.00
8697;BME280;4385;48.848;8.924;2023-03-15T06:06:17;97363.34;;;18.41;100.00
8697;BME280;4385;48.848;8.924;2023-03-15T06:08:43;97361.66;;;18.40;100.00
8697;BME280;4385;48.848;8.924;2023-03-15T06:11:08;97361.72;;;18.37;100.00
8697;BME280;4385;48.848;8.924;2023-03-15T06:13:33;97366.88;;;18.35;100.00
8697;BME280;4385;48.848;8.924;2023-03-15T06:15:58;97365.22;;;18.32;100.00
8697;BME280;4385;48.848;8.924;2023-03-15T06:18:24;97370.41;;;18.29;100.00
8697;BME280;4385;48.848;8.924;2023-03-15T06:20:49;97373.03;;;18.26;100.00
8697;BME280;4385;48.848;8.924;2023-03-15T06:23:14;97368.00;;;18.23;100.00
8697;BME280;4385;48.848;8.924;2023-03-15T06:25:40;97371.47;;;18.21;100.00
8697;BME280;4385;48.848;8.924;2023-03-15T06:28:05;97374.91;;;18.18;100.00
8697;BME280;4385;48.848;8.924;2023-03-15T06:30:30;97376.72;;;18.14;100.00
8697;BME280;4385;48.848;8.924;2023-03-15T06:32:55;97384.41;;;18.13;100.00
8697;BME280;4385;48.848;8.924;2023-03-15T06:35:21;97382.69;;;18.12;100.00
8697;BME280;4385;48.848;8.924;2023-03-15T06:37:46;97377.56;;;18.13;100.00
8697;BME280;4385;48.848;8.924;2023-03-15T06:40:12;97376.75;;;18.13;100.00
8697;BME280;4385;48.848;8.924;2023-03-15T06:42:38;97378.41;;;18.14;100.00
8697;BME280;4385;48.848;8.924;2023-03-15T06:45:06;97382.63;;;18.15;100.00
8697;BME280;4385;48.848;8.924;2023-03-15T06:47:32;97381.81;;;18.14;100.00
8697;BME280;4385;48.848;8.924;2023-03-15T06:49:58;97387.00;;;18.08;100.00
8697;BME280;4385;48.848;8.924;2023-03-15T06:52:23;97387.97;;;18.02;100.00
8697;BME280;4385;48.848;8.924;2023-03-15T06:54:48;97385.50;;;17.99;100.00
8697;BME280;4385;48.848;8.924;2023-03-15T06:57:14;97389.81;;;17.97;100.00
8697;BME280;4385;48.848;8.924;2023-03-15T06:59:39;97388.13;;;17.94;100.00
8697;BME280;4385;48.848;8.924;2023-03-15T07:02:05;97388.13;;;17.94;100.00
8697;BME280;4385;48.848;8.924;2023-03-15T07:04:31;97389.00;;;17.95;100.00
8697;BME280;4385;48.848;8.924;2023-03-15T07:06:56;97397.44;;;17.97;100.00
8697;BME280;4385;48.848;8.924;2023-03-15T07:09:21;97399.97;;;17.99;100.00
8697;BME280;4385;48.848;8.924;2023-03-15T07:11:47;97388.88;;;18.00;100.00
8697;BME280;4385;48.848;8.924;2023-03-15T07:14:12;97394.00;;;18.00;100.00
8697;BME280;4385;48.848;8.924;2023-03-15T07:16:37;97398.31;;;17.96;100.00
8697;BME280;4385;48.848;8.924;2023-03-15T07:19:03;97393.28;;;17.93;100.00
8697;BME280;4385;48.848;8.924;2023-03-15T07:21:28;97401.81;;;17.92;100.00
8697;BME280;4385;48.848;8.924;2023-03-15T07:23:54;97403.53;;;17.90;100.00
8697;BME280;4385;48.848;8.924;2023-03-15T07:26:19;97401.88;;;17.89;100.00
8697;BME280;4385;48.848;8.924;2023-03-15T07:28:45;97410.41;;;17.88;100.00
8697;BME280;4385;48.848;8.924;2023-03-15T07:31:11;97413.75;;;17.88;100.00
8697;BME280;4385;48.848;8.924;2023-03-15T07:33:37;97415.50;;;17.88;100.00
8697;BME280;4385;48.848;8.924;2023-03-15T07:36:04;97418.03;;;17.88;100.00
8697;BME280;4385;48.848;8.924;2023-03-15T07:38:30;97413.78;;;17.87;100.00
8697;BME280;4385;48.848;8.924;2023-03-15T07:40:56;97412.94;;;17.88;100.00
8697;BME280;4385;48.848;8.924;2023-03-15T07:43:23;97420.59;;;17.88;100.00
8697;BME280;4385;48.848;8.924;2023-03-15T07:45:49;97412.91;;;17.89;100.00
8697;BME280;4385;48.848;8.924;2023-03-15T07:48:15;97412.91;;;17.89;100.00
8697;BME280;4385;48.848;8.924;2023-03-15T07:50:40;97418.00;;;17.89;100.00
8697;BME280;4385;48.848;8.924;2023-03-15T07:53:06;97423.09;;;17.89;100.00
8697;BME280;4385;48.848;8.924;2023-03-15T07:55:32;97417.13;;;17.90;100.00
8697;BME280;4385;48.848;8.924;2023-03-15T07:57:57;97418.78;;;17.91;100.00
8697;BME280;4385;48.848;8.924;2023-03-15T08:00:23;97423.94;;;17.90;100.00
8697;BME280;4385;48.848;8.924;2023-03-15T08:02:48;97417.97;;;17.91;100.00
8697;BME280;4385;48.848;8.924;2023-03-15T08:05:14;97422.22;;;17.90;100.00
8697;BME280;4385;48.848;8.924;2023-03-15T08:07:39;97418.84;;;17.88;100.00
8697;BME280;4385;48.848;8.924;2023-03-15T08:10:05;97428.28;;;17.86;100.00
8697;BME280;4385;48.848;8.924;2023-03-15T08:12:31;97424.91;;;17.84;100.00
8697;BME280;4385;48.848;8.924;2023-03-15T08:14:57;97428.38;;;17.81;100.00
8697;BME280;4385;48.848;8.924;2023-03-15T08:17:22;97424.16;;;17.79;100.00
8697;BME280;4385;48.848;8.924;2023-03-15T08:19:48;97420.81;;;17.77;100.00
8697;BME280;4385;48.848;8.924;2023-03-15T08:22:13;97428.50;;;17.75;100.00
8697;BME280;4385;48.848;8.924;2023-03-15T08:24:38;97427.66;;;17.73;100.00
8697;BME280;4385;48.848;8.924;2023-03-15T08:27:04;97429.41;;;17.71;100.00
8697;BME280;4385;48.848;8.924;2023-03-15T08:29:29;97426.84;;;17.71;100.00
8697;BME280;4385;48.848;8.924;2023-03-15T08:31:55;97437.00;;;17.73;100.00
8697;BME280;4385;48.848;8.924;2023-03-15T08:34:21;97437.88;;;17.73;100.00
8697;BME280;4385;48.848;8.924;2023-03-15T08:36:47;97436.16;;;17.74;100.00
8697;BME280;4385;48.848;8.924;2023-03-15T08:39:12;97437.00;;;17.73;100.00
8697;BME280;4385;48.848;8.924;2023-03-15T08:41:38;97442.97;;;17.73;100.00
8697;BME280;4385;48.848;8.924;2023-03-15T08:44:05;97451.44;;;17.75;100.00
8697;BME280;4385;48.848;8.924;2023-03-15T08:46:30;97450.53;;;17.76;100.00
8697;BME280;4385;48.848;8.924;2023-03-15T08:48:57;97448.00;;;17.76;100.00
8697;BME280;4385;48.848;8.924;2023-03-15T08:51:22;97454.75;;;17.77;100.00
8697;BME280;4385;48.848;8.924;2023-03-15T08:53:49;97451.38;;;17.78;100.00
8697;BME280;4385;48.848;8.924;2023-03-15T08:56:15;97454.69;;;17.80;100.00
8697;BME280;4385;48.848;8.924;2023-03-15T08:58:40;97452.13;;;17.82;100.00
8697;BME280;4385;48.848;8.924;2023-03-15T09:01:06;97462.34;;;17.80;100.00
8697;BME280;4385;48.848;8.924;2023-03-15T09:03:31;97455.56;;;17.81;100.00
8697;BME280;4385;48.848;8.924;2023-03-15T09:05:59;97468.31;;;17.79;100.00
8697;BME280;4385;48.848;8.924;2023-03-15T09:08:25;97465.81;;;17.78;100.00
8697;BME280;4385;48.848;8.924;2023-03-15T09:10:56;97470.06;;;17.77;100.00
8697;BME280;4385;48.848;8.924;2023-03-15T09:13:22;97467.56;;;17.74;100.00
8697;BME280;4385;48.848;8.924;2023-03-15T09:15:49;97476.09;;;17.73;100.00
8697;BME280;4385;48.848;8.924;2023-03-15T09:18:15;97485.47;;;17.71;100.00
8697;BME280;4385;48.848;8.924;2023-03-15T09:20:41;97471.13;;;17.67;100.00
8697;BME280;4385;48.848;8.924;2023-03-15T09:23:06;97480.50;;;17.65;100.00
8697;BME280;4385;48.848;8.924;2023-03-15T09:25:31;97477.13;;;17.64;100.00
8697;BME280;4385;48.848;8.924;2023-03-15T09:27:57;97480.50;;;17.65;100.00
8697;BME280;4385;48.848;8.924;2023-03-15T09:30:22;97478.75;;;17.67;100.00
8697;BME280;4385;48.848;8.924;2023-03-15T09:32:48;97480.38;;;17.71;100.00
8697;BME280;4385;48.848;8.924;2023-03-15T09:35:18;97485.41;;;17.74;100.00
8697;BME280;4385;48.848;8.924;2023-03-15T09:37:45;97481.13;;;17.76;100.00
8697;BME280;4385;48.848;8.924;2023-03-15T09:42:56;97474.25;;;17.81;100.00
8697;BME280;4385;48.848;8.924;2023-03-15T09:48:32;97481.84;;;17.85;100.00
8697;BME280;4385;48.848;8.924;2023-03-15T09:56:23;97495.38;;;17.87;100.00
8697;BME280;4385;48.848;8.924;2023-03-15T09:58:51;97486.88;;;17.88;100.00
8697;BME280;4385;48.848;8.924;2023-03-15T10:01:21;97490.25;;;17.88;100.00
8697;BME280;4385;48.848;8.924;2023-03-15T10:03:51;97491.97;;;17.88;100.00
8697;BME280;4385;48.848;8.924;2023-03-15T10:06:29;97490.25;;;17.87;100.00
8697;BME280;4385;48.848;8.924;2023-03-15T10:08:59;97492.00;;;17.86;100.00
8697;BME280;4385;48.848;8.924;2023-03-15T10:11:36;97492.88;;;17.83;100.00
8697;BME280;4385;48.848;8.924;2023-03-15T10:17:14;97492.97;;;17.79;100.00
8697;BME280;4385;48.848;8.924;2023-03-15T10:19:52;97492.19;;;17.77;100.00
8697;BME280;4385;48.848;8.924;2023-03-15T10:22:24;97490.50;;;17.74;100.00
8697;BME280;4385;48.848;8.924;2023-03-15T10:25:10;97482.91;;;17.71;100.00
8697;BME280;4385;48.848;8.924;2023-03-15T10:28:22;97479.59;;;17.69;100.00
8697;BME280;4385;48.848;8.924;2023-03-15T10:30:49;97486.38;;;17.68;100.00
8697;BME280;4385;48.848;8.924;2023-03-15T10:33:30;97485.47;;;17.71;100.00
8697;BME280;4385;48.848;8.924;2023-03-15T10:35:57;97486.28;;;17.73;100.00
8697;BME280;4385;48.848;8.924;2023-03-15T10:38:24;97493.06;;;17.74;100.00
8697;BME280;4385;48.848;8.924;2023-03-15T10:40:52;97494.75;;;17.75;100.00
8697;BME280;4385;48.848;8.924;2023-03-15T10:43:27;97495.53;;;17.77;100.00
8697;BME280;4385;48.848;8.924;2023-03-15T10:46:38;97509.09;;;17.79;100.00
8697;BME280;4385;48.848;8.924;2023-03-15T10:48:57;97505.72;;;17.79;100.00
8697;BME280;4385;48.848;8.924;2023-03-15T10:53:59;97503.91;;;17.84;100.00
8697;BME280;4385;48.848;8.924;2023-03-15T10:56:29;97498.75;;;17.87;100.00
8697;BME280;4385;48.848;8.924;2023-03-15T10:58:56;97494.50;;;17.88;100.00
8697;BME280;4385;48.848;8.924;2023-03-15T11:01:26;97501.28;;;17.89;100.00
8697;BME280;4385;48.848;8.924;2023-03-15T11:04:15;97491.97;;;17.88;100.00
8697;BME280;4385;48.848;8.924;2023-03-15T11:07:07;97488.56;;;17.87;100.00
8697;BME280;4385;48.848;8.924;2023-03-15T11:09:44;97492.81;;;17.87;100.00
8697;BME280;4385;48.848;8.924;2023-03-15T11:12:30;97494.56;;;17.85;100.00
8697;BME280;4385;48.848;8.924;2023-03-15T11:15:02;97503.06;;;17.83;100.00
8697;BME280;4385;48.848;8.924;2023-03-15T11:17:32;97502.28;;;17.81;100.00
8697;BME280;4385;48.848;8.924;2023-03-15T11:20:25;97508.25;;;17.79;100.00
8697;BME280;4385;48.848;8.924;2023-03-15T11:22:52;97507.44;;;17.78;100.00
8697;BME280;4385;48.848;8.924;2023-03-15T11:25:19;97498.97;;;17.76;100.00
8697;BME280;4385;48.848;8.924;2023-03-15T11:27:46;97497.31;;;17.75;100.00
8697;BME280;4385;48.848;8.924;2023-03-15T11:30:16;97504.94;;;17.75;100.00
8697;BME280;4385;48.848;8.924;2023-03-15T11:32:43;97504.06;;;17.76;100.00
8697;BME280;4385;48.848;8.924;2023-03-15T11:35:18;97496.41;;;17.78;100.00
8697;BME280;4385;48.848;8.924;2023-03-15T11:37:48;97503.16;;;17.79;100.00
8697;BME280;4385;48.848;8.924;2023-03-15T11:40:25;97505.69;;;17.80;100.00
8697;BME280;4385;48.848;8.924;2023-03-15T11:50:54;97502.16;;;17.88;100.00
8697;BME280;4385;48.848;8.924;2023-03-15T11:53:20;97500.41;;;17.90;100.00
8697;BME280;4385;48.848;8.924;2023-03-15T11:55:52;97498.69;;;17.92;100.00
8697;BME280;4385;48.848;8.924;2023-03-15T11:58:40;97502.03;;;17.94;100.00
8697;BME280;4385;48.848;8.924;2023-03-15T12:01:09;97505.41;;;17.94;100.00
8697;BME280;4385;48.848;8.924;2023-03-15T12:03:43;97504.56;;;17.95;100.00
8697;BME280;4385;48.848;8.924;2023-03-15T12:16:25;97506.41;;;17.87;100.00
8697;BME280;4385;48.848;8.924;2023-03-15T12:18:52;97502.22;;;17.85;100.00
8697;BME280;4385;48.848;8.924;2023-03-15T12:21:21;97510.75;;;17.82;100.00
8697;BME280;4385;48.848;8.924;2023-03-15T12:23:48;97509.09;;;17.79;100.00
8697;BME280;4385;48.848;8.924;2023-03-15T12:26:37;97512.53;;;17.78;100.00
8697;BME280;4385;48.848;8.924;2023-03-15T12:31:43;97522.72;;;17.78;100.00
8697;BME280;4385;48.848;8.924;2023-03-15T12:34:24;97534.59;;;17.79;100.00
8697;BME280;4385;48.848;8.924;2023-03-15T12:36:52;97532.03;;;17.79;100.00
8697;BME280;4385;48.848;8.924;2023-03-15T12:39:38;97540.53;;;17.80;100.00
8697;BME280;4385;48.848;8.924;2023-03-15T12:42:04;97541.34;;;17.82;100.00
8697;BME280;4385;48.848;8.924;2023-03-15T12:46:59;97540.50;;;17.83;100.00
8697;BME280;4385;48.848;8.924;2023-03-15T12:49:37;97536.22;;;17.83;100.00
8697;BME280;4385;48.848;8.924;2023-03-15T12:52:12;97540.47;;;17.85;100.00
8697;BME280;4385;48.848;8.924;2023-03-15T12:54:54;97529.38;;;17.86;100.00
8697;BME280;4385;48.848;8.924;2023-03-15T12:57:34;97532.75;;;17.88;100.00
8697;BME280;4385;48.848;8.924;2023-03-15T13:00:13;97532.75;;;17.88;100.00
8697;BME280;4385;48.848;8.924;2023-03-15T13:02:53;97524.28;;;17.86;100.00
8697;BME280;4385;48.848;8.924;2023-03-15T13:05:28;97535.34;;;17.86;100.00
8697;BME280;4385;48.848;8.924;2023-03-15T13:08:06;97544.69;;;17.86;100.00
8697;BME280;4385;48.848;8.924;2023-03-15T13:13:28;97544.72;;;17.82;100.00
8697;BME280;4385;48.848;8.924;2023-03-15T13:16:07;97546.47;;;17.80;100.00
8697;BME280;4385;48.848;8.924;2023-03-15T13:21:27;97547.38;;;17.78;100.00
8697;BME280;4385;48.848;8.924;2023-03-15T13:23:57;97555.03;;;17.76;100.00
8697;BME280;4385;48.848;8.924;2023-03-15T13:29:15;97561.88;;;17.74;100.00
8697;BME280;4385;48.848;8.924;2023-03-15T13:31:42;97561.03;;;17.75;100.00
8697;BME280;4385;48.848;8.924;2023-03-15T13:34:21;97562.69;;;17.76;100.00
8697;BME280;4385;48.848;8.924;2023-03-15T13:36:53;97564.38;;;17.76;100.00
8697;BME280;4385;48.848;8.924;2023-03-15T13:39:20;97556.75;;;17.76;100.00
8697;BME280;4385;48.848;8.924;2023-03-15T13:41:48;97553.38;;;17.75;100.00
8697;BME280;4385;48.848;8.924;2023-03-15T13:44:22;97542.28;;;17.78;100.00
8697;BME280;4385;48.848;8.924;2023-03-15T13:46:49;97543.13;;;17.78;100.00
8697;BME280;4385;48.848;8.924;2023-03-15T13:49:15;97538.03;;;17.78;100.00
8697;BME280;4385;48.848;8.924;2023-03-15T13:51:41;97533.72;;;17.80;100.00
8697;BME280;4385;48.848;8.924;2023-03-15T13:54:23;97532.03;;;17.81;100.00
8697;BME280;4385;48.848;8.924;2023-03-15T13:59:19;97523.47;;;17.83;100.00
8697;BME280;4385;48.848;8.924;2023-03-15T14:01:45;97510.72;;;17.83;100.00
8697;BME280;4385;48.848;8.924;2023-03-15T14:04:16;97511.56;;;17.84;100.00
8697;BME280;4385;48.848;8.924;2023-03-15T14:06:42;97507.31;;;17.85;100.00
8697;BME280;4385;48.848;8.924;2023-03-15T14:09:17;97513.28;;;17.83;100.00
8697;BME280;4385;48.848;8.924;2023-03-15T14:11:43;97511.56;;;17.84;100.00
8697;BME280;4385;48.848;8.924;2023-03-15T14:16:44;97506.56;;;17.79;100.00
8697;BME280;4385;48.848;8.924;2023-03-15T14:19:24;97510.81;;;17.79;100.00
8697;BME280;4385;48.848;8.924;2023-03-15T14:21:55;97510.84;;;17.77;100.00
8697;BME280;4385;48.848;8.924;2023-03-15T14:26:53;97527.00;;;17.76;100.00
8697;BME280;4385;48.848;8.924;2023-03-15T14:29:28;97527.84;;;17.77;100.00
8697;BME280;4385;48.848;8.924;2023-03-15T14:31:58;97527.84;;;17.78;100.00
8697;BME280;4385;48.848;8.924;2023-03-15T14:34:43;97538.81;;;17.80;100.00